Latest Coastal Weather Observations for Ceduna

IDS60701

Issued at 10:51 pm CDT Friday 12 February 2016 (issued every 10 minutes, with the page automatically refreshed every 10 minutes)

About coastal observations | Map of coastal stations | Coastal observations for SA | Marine services | Other Formats
Station Details ID: 018012 Name: CEDUNA AMO Lat: -32.13 Lon: 133.70 Height: 15.3 m
Data from the previous 72 hours. | See also: Recent months at Ceduna
Date/Time
CDT
Temp

°C
Wind Pressure Rain
since 9am
mm
Weather Cloud Vis
km
Sea
Height
m
Swell
Dir
 
Speed
knots
Gust
knots
hPa Trend Height
m
Period
s
Dir
12/10:30pm 18.3 S 4 6 1013.4 - 0.0 - - 10 - - - -
12/10:00pm 17.7 S 2 7 1013.4 - 0.0 - - 10 - - - -
12/09:30pm 18.0 CALM 0 0 1013.3 - 0.0 - - 10 - - - -
12/09:00pm 19.2 CALM 0 0 1013.1 F 0.0 - - 10 - - - -
12/08:30pm 21.7 CALM 0 0 1013.0 - 0.0 - - 10 - - - -
12/08:00pm 22.4 SSE 5 7 1012.9 - 0.0 - - 10 - - - -
12/07:30pm 22.8 S 10 13 1013.0 - 0.0 - - 10 - - - -
12/07:00pm 23.7 S 11 13 1012.9 - 0.0 - - 10 - - - -
12/06:30pm 24.4 S 11 13 1012.9 - 0.0 - - 10 - - - -
12/06:00pm 25.4 SSW 13 15 1012.8 R 0.0 - - 10 - - - -
12/05:30pm 26.5 SSW 12 15 1012.7 - 0.0 - - 10 - - - -
12/05:00pm 26.0 S 13 16 1012.8 - 0.0 - - 10 - - - -
12/04:30pm 26.8 S 14 18 1012.7 - 0.0 - - 10 - - - -
12/04:00pm 26.0 SSW 15 17 1012.6 - 0.0 - - 10 - - - -
12/03:30pm 26.7 SSW 14 16 1012.9 - 0.0 - - 10 - - - -
12/03:00pm 27.6 SSW 14 18 1013.1 F 0.0 - - 10 - - - -
12/02:30pm 28.0 SSW 13 15 1013.0 - 0.0 - - 10 - - - -
12/02:00pm 28.0 SW 8 10 1013.2 - 0.0 - - 10 - - - -
12/01:30pm 25.9 SSW 9 11 1013.8 - 0.0 - - 10 - - - -
12/01:00pm 25.0 SW 9 11 1014.2 - 0.0 - - 10 - - - -
12/12:30pm 24.8 SW 9 11 1014.6 - 0.0 - - 10 - - - -
12/12:00pm 24.0 SW 8 10 1015.0 F 0.0 - - 10 - - - -
12/11:30am 24.0 SW 6 8 1015.3 - 0.0 - - 10 - - - -
12/11:00am 22.9 WSW 6 8 1015.6 - 0.0 - - 10 - - - -
12/10:30am 22.6 SE 1 4 1015.6 - 0.0 - - 10 - - - -
12/10:00am 21.2 CALM 0 0 1015.8 - 0.0 - - 10 - - - -
12/09:30am 19.4 E 4 5 1015.9 - 0.0 - - 10 - - - -
12/09:00am 17.8 E 5 7 1016.0 F 0.0 - - 10 - - - -
12/08:30am 15.9 ESE 2 5 1016.0 - 0.0 - - 10 - - - -
12/08:03am 13.6 CALM 0 0 1015.7 - 0.0 - - 10 - - - -
12/08:00am 13.3 CALM 0 0 1015.6 - 0.0 - - 10 - - - -
12/07:30am 10.4 CALM 0 0 1015.5 - 0.0 - - 4 - - - -
12/07:00am 11.2 CALM 0 0 1015.2 - 0.0 - Partly cloudy 0.4 - - - -
12/06:41am 11.5 CALM 0 0 1015.0 - 0.0 - Partly cloudy 0.3 - - - -
12/06:30am 11.8 CALM 0 0 1014.9 - 0.0 - Partly cloudy 0.2 - - - -
12/06:00am 12.9 CALM 0 0 1014.7 F 0.0 - Cloudy 0.2 - - - -
12/05:30am 13.6 NE 3 5 1014.4 - 0.0 - Cloudy 0.2 - - - -
12/05:00am 13.5 NE 3 4 1014.6 - 0.0 - Partly cloudy 0.1 - - - -
12/04:51am 13.4 NE 3 4 1014.6 - 0.0 - Partly cloudy 0.2 - - - -
12/04:30am 14.3 NE 4 5 1014.5 - 0.0 - - 4 - - - -
12/04:11am 15.3 SSE 4 5 1014.7 - 0.0 - Partly cloudy 5 - - - -
12/04:00am 15.9 S 5 6 1014.7 - 0.0 - Partly cloudy 9 - - - -
12/03:30am 16.4 SSE 7 8 1014.9 - 0.0 - - 10 - - - -
12/03:00am 16.1 SSE 6 8 1015.2 F 0.0 - - 10 - - - -
12/02:30am 16.7 SSE 5 6 1015.5 - 0.0 - - 10 - - - -
12/02:00am 16.9 S 8 10 1015.7 - 0.0 - - 10 - - - -
12/01:30am 17.0 S 8 10 1016.0 - 0.0 - - 10 - - - -
12/01:00am 17.2 S 9 10 1016.5 - 0.0 - - 10 - - - -
12/12:30am 17.5 S 9 11 1016.9 - 0.0 - - 10 - - - -
12/12:16am 17.7 S 10 13 1017.0 - 0.0 - Partly cloudy 10 - - - -
12/12:00am 17.9 S 11 14 1017.1 F 0.0 - Partly cloudy 10 - - - -
 
Date/Time
CDT
Temp

°C
Wind Pressure Rain
since 9am
mm
Weather Cloud Vis
km
Sea
Height
m
Swell
Dir
 
Speed
knots
Gust
knots
hPa Trend Height
m
Period
s
Dir
11/11:47pm 17.9 S 10 15 1017.4 - 0.0 - Partly cloudy 10 - - - -
11/11:30pm 17.9 S 10 15 1017.4 - 0.0 - Partly cloudy 10 - - - -
11/11:00pm 18.1 S 11 14 1017.5 - 0.0 - Partly cloudy 10 - - - -
11/10:30pm 18.3 S 12 15 1017.4 - 0.0 - Partly cloudy 10 - - - -
11/10:22pm 18.3 S 11 15 1017.4 - 0.0 - Partly cloudy 10 - - - -
11/10:00pm 18.5 S 12 17 1017.3 - 0.0 - Partly cloudy 10 - - - -
11/09:30pm 18.5 S 13 17 1017.1 - 0.0 - Partly cloudy 10 - - - -
11/09:00pm 18.6 S 12 18 1016.8 R 0.0 - Partly cloudy 10 - - - -
11/08:30pm 18.7 S 15 20 1016.5 - 0.0 - Partly cloudy 10 - - - -
11/08:16pm 18.9 S 15 19 1016.3 - 0.0 - Partly cloudy 10 - - - -
11/08:00pm 19.1 S 15 19 1016.3 - 0.0 - Partly cloudy 10 - - - -
11/07:30pm 19.6 S 15 21 1015.8 - 0.0 - - 10 - - - -
11/07:00pm 20.1 SSW 16 21 1015.8 - 0.0 - - 10 - - - -
11/06:30pm 20.6 SSW 16 20 1015.4 - 0.0 - - 10 - - - -
11/06:00pm 20.8 SSW 18 22 1015.2 S 0.0 - - 10 - - - -
11/05:30pm 21.5 SSW 15 18 1015.0 - 0.0 - - 10 - - - -
11/05:00pm 21.4 SSW 16 20 1015.2 - 0.0 - - 10 - - - -
11/04:30pm 22.0 SSW 16 20 1015.4 - 0.0 - - 10 - - - -
11/04:00pm 22.4 SSW 15 19 1015.3 - 0.0 - - 10 - - - -
11/03:30pm 22.3 S 13 17 1015.5 - 0.0 - - 10 - - - -
11/03:00pm 21.3 S 14 19 1015.8 R 0.0 - - 10 - - - -
11/02:30pm 21.2 SSW 16 20 1016.1 - 0.0 - - 10 - - - -
11/02:00pm 21.1 SSW 17 21 1016.2 - 0.0 - - 10 - - - -
11/01:30pm 20.3 SSW 15 20 1016.5 - 0.0 - - 10 - - - -
11/01:00pm 20.8 SSW 13 16 1016.6 - 0.0 - - 10 - - - -
11/12:30pm 21.0 S 12 17 1016.6 - 0.0 - - 10 - - - -
11/12:00pm 20.7 S 12 16 1016.7 S 0.0 - Mostly clear 10 - - - -
11/11:30am 20.4 S 11 16 1017.0 - 0.0 - Partly cloudy 10 - - - -
11/11:00am 20.7 SSE 11 14 1017.3 - 0.0 - Partly cloudy 10 - - - -
11/10:30am 19.9 S 11 16 1017.2 - 0.0 - Cloudy 10 - - - -
11/10:00am 19.7 SSE 11 16 1017.1 - 0.0 - Cloudy 10 - - - -
11/09:30am 19.4 SSE 12 15 1017.0 - 0.0 - Partly cloudy 10 - - - -
11/09:21am 19.0 SE 12 16 1017.0 - 0.0 - Partly cloudy 10 - - - -
11/09:00am 18.5 SSE 11 15 1016.8 F 0.0 - Mostly cloudy 10 - - - -
11/08:30am 17.5 SSE 11 14 1016.9 - 0.0 - Cloudy 10 - - - -
11/08:00am 17.5 SSE 10 13 1016.9 - 0.0 - Cloudy 10 - - - -
11/07:30am 17.2 SSE 11 15 1016.7 - 0.0 - Cloudy 10 - - - -
11/07:00am 17.2 SSE 11 15 1016.3 - 0.0 - Cloudy 10 - - - -
11/06:30am 16.8 SSE 9 11 1016.0 - 0.0 - Partly cloudy 10 - - - -
11/06:20am 16.6 SSE 7 9 1015.8 - 0.0 - Partly cloudy 10 - - - -
11/06:00am 16.6 SSE 7 9 1015.5 F 0.0 - Mostly clear 10 - - - -
11/05:30am 16.8 S 8 10 1015.3 - 0.0 - - 10 - - - -
11/05:00am 16.4 S 6 8 1015.2 - 0.0 - - 10 - - - -
11/04:30am 16.3 S 6 7 1015.0 - 0.0 - - 10 - - - -
11/04:00am 16.8 S 7 8 1015.2 - 0.0 - - 10 - - - -
11/03:30am 17.0 SSE 7 9 1015.5 - 0.0 - - 10 - - - -
11/03:05am 17.4 S 9 12 1015.5 - 0.0 - Partly cloudy 10 - - - -
11/03:00am 17.5 S 10 13 1015.5 F 0.0 - Mostly clear 10 - - - -
11/02:30am 17.8 S 12 18 1015.7 - 0.0 - Partly cloudy 10 - - - -
11/02:00am 18.0 S 13 16 1015.8 - 0.0 - Cloudy 10 - - - -
11/01:30am 18.1 S 11 14 1015.9 - 0.0 - Cloudy 10 - - - -
11/01:00am 18.0 S 13 16 1016.2 - 0.0 - Partly cloudy 10 - - - -
11/12:30am 17.9 S 12 17 1016.4 - 0.0 - Partly cloudy 10 - - - -
11/12:23am 17.8 S 12 15 1016.4 - 0.0 - Partly cloudy 10 - - - -
11/12:00am 17.8 S 13 17 1016.5 R 0.0 - Mostly clear 10 - - - -
 
Date/Time
CDT
Temp

°C
Wind Pressure Rain
since 9am
mm
Weather Cloud Vis
km
Sea
Height
m
Swell
Dir
 
Speed
knots
Gust
knots
hPa Trend Height
m
Period
s
Dir
10/11:51pm 17.9 S 13 17 1016.4 - 0.0 - Partly cloudy 10 - - - -
10/11:30pm 17.9 S 13 18 1016.3 - 0.0 - Partly cloudy 10 - - - -
10/11:18pm 18.1 S 13 17 1016.3 - 0.0 - Partly cloudy 10 - - - -
10/11:02pm 18.0 S 12 16 1016.3 - 0.0 - Partly cloudy 10 - - - -
10/11:00pm 17.9 S 12 16 1016.4 - 0.0 - Partly cloudy 10 - - - -
10/10:30pm 18.1 S 14 18 1016.2 - 0.0 - Partly cloudy 10 - - - -
10/10:00pm 18.3 S 13 18 1016.0 - 0.0 - Partly cloudy 10 - - - -
10/09:35pm 18.6 S 13 19 1015.8 - 0.0 - Partly cloudy 10 - - - -
10/09:30pm 18.6 S 12 17 1015.7 - 0.0 - Partly cloudy 10 - - - -
10/09:00pm 18.7 S 12 16 1015.6 R 0.0 - Mostly clear 10 - - - -
10/08:30pm 19.1 S 14 17 1015.4 - 0.0 - - 10 - - - -
10/08:00pm 20.0 S 15 21 1014.9 - 0.0 - - 10 - - - -
10/07:30pm 21.0 S 13 18 1014.6 - 0.0 - - 10 - - - -
10/07:00pm 22.2 S 13 17 1014.3 - 0.0 - - 10 - - - -
10/06:30pm 21.8 S 15 21 1014.3 - 0.0 - - 10 - - - -
10/06:00pm 22.8 SW 12 15 1014.1 S 0.0 - - 10 - - - -
10/05:30pm 22.5 SSW 15 19 1014.1 - 0.0 - - 10 - - - -
10/05:00pm 22.1 SW 15 19 1014.2 - 0.0 - - 10 - - - -
10/04:30pm 22.0 SSW 15 19 1014.3 - 0.0 - - 10 - - - -
10/04:00pm 21.8 SW 15 17 1014.3 - 0.0 - - 10 - - - -
10/03:30pm 22.2 SSW 15 19 1014.5 - 0.0 - - 10 - - - -
10/03:00pm 22.0 SW 15 18 1014.7 R 0.0 - - 10 - - - -
10/02:30pm 21.9 SSW 14 17 1015.1 - 0.0 - - 10 - - - -
10/02:12pm 22.1 SW 14 17 1015.1 - 0.0 - Partly cloudy 10 - - - -
10/02:00pm 21.4 SSW 13 16 1015.2 - 0.0 - Partly cloudy 10 - - - -
10/01:30pm 20.6 SSW 13 17 1015.5 - 0.0 - Cloudy 10 - - - -
10/01:00pm 21.0 SSW 13 18 1015.5 - 0.0 - Cloudy 10 - - - -
10/12:30pm 20.2 SSW 12 15 1015.7 - 0.0 - Cloudy 10 - - - -
10/12:00pm 20.6 SSW 9 14 1015.8 R 0.0 - Mostly cloudy 10 - - - -
10/11:30am 20.3 SW 10 13 1015.9 - 0.0 - Partly cloudy 10 - - - -
10/11:25am 19.9 SW 9 13 1016.0 - 0.0 - Partly cloudy 10 - - - -
10/11:00am 20.3 SW 9 12 1015.9 - 0.0 - Partly cloudy 10 - - - -
10/10:54am 20.3 SW 9 12 1015.9 - 0.0 - Partly cloudy 10 - - - -
10/10:36am 19.9 SW 8 12 1015.9 - 0.0 - Partly cloudy 10 - - - -
10/10:30am 20.3 SW 9 12 1016.0 - 0.0 - Partly cloudy 10 - - - -
10/10:13am 19.8 SW 9 12 1016.0 - 0.0 - Partly cloudy 10 - - - -
10/10:00am 19.8 SW 7 9 1016.0 - 0.0 - Partly cloudy 10 - - - -
10/09:48am 19.5 SW 5 9 1015.8 - 0.0 - Partly cloudy 10 - - - -
10/09:35am 19.4 SSW 5 9 1015.7 - 0.0 - Partly cloudy 10 - - - -
10/09:30am 19.0 SW 6 9 1015.7 - 0.0 - Partly cloudy 10 - - - -
10/09:00am 18.7 SSE 3 5 1015.7 F 0.0 - Cloudy 10 - - - -
10/08:30am 18.1 SSW 5 8 1015.9 - 0.0 - Cloudy 10 - - - -
10/08:00am 17.9 SSE 4 5 1015.6 - 0.0 - Cloudy 10 - - - -
10/07:30am 17.8 S 5 7 1015.4 - 0.0 - Cloudy 10 - - - -
10/07:00am 17.7 S 6 8 1015.2 - 0.0 - Cloudy 10 - - - -
10/06:30am 17.6 SSE 8 10 1015.1 - 0.0 - Cloudy 10 - - - -
10/06:00am 17.4 S 7 11 1014.9 F 0.0 - Mostly cloudy 10 - - - -
10/05:30am 17.2 S 5 7 1014.9 - 0.0 - Cloudy 10 - - - -
10/05:00am 17.1 S 5 7 1014.8 - 0.0 - Cloudy 10 - - - -
10/04:30am 16.8 S 6 8 1014.9 - 0.0 - Cloudy 10 - - - -
10/04:00am 16.4 S 5 7 1014.8 - 0.0 - Cloudy 10 - - - -
10/03:30am 14.9 CALM 0 0 1015.1 - 0.0 - Cloudy 10 - - - -
10/03:04am 14.8 CALM 0 0 1015.2 - 0.0 - Partly cloudy 10 - - - -
10/03:00am 14.9 CALM 0 0 1015.3 F 0.0 - Partly cloudy 10 - - - -
10/02:38am 15.6 S 4 4 1015.6 - 0.0 - Partly cloudy 10 - - - -
10/02:30am 15.9 S 4 6 1015.7 - 0.0 - Partly cloudy 10 - - - -
10/02:00am 16.9 S 8 11 1016.0 - 0.0 - Cloudy 10 - - - -
10/01:30am 17.2 S 9 14 1016.4 - 0.0 - Cloudy 10 - - - -
10/01:00am 17.4 S 9 13 1016.6 - 0.0 - Cloudy 10 - - - -
10/12:30am 17.5 S 9 13 1016.9 - 0.0 - Cloudy 10 - - - -
10/12:00am 17.8 S 10 14 1017.1 F 0.0 - Mostly cloudy 10 - - - -
 
Date/Time
CDT
Temp

°C
Wind Pressure Rain
since 9am
mm
Weather Cloud Vis
km
Sea
Height
m
Swell
Dir
 
Speed
knots
Gust
knots
hPa Trend Height
m
Period
s
Dir
09/11:30pm 17.6 S 9 11 1017.2 - 0.0 - Partly cloudy 10 - - - -
09/11:00pm 17.6 S 8 11 1017.2 - 0.0 - Partly cloudy 10 - - - -

Other Formats:

Comma delimited format used in spreadsheet applications
http://www.bom.gov.au/fwo/IDS60701/IDS60701.94653.axf

JavaScript Object Notation format (JSON) in row-major order
http://www.bom.gov.au/fwo/IDS60701/IDS60701.94653.json